sensor_id;sensor_type;location;lat;lon;timestamp;P1;durP1;ratioP1;P2;durP2;ratioP2
46210;SDS011;52144;48.040;-1.594;2023-01-24T00:01:14;27.83;;;11.55;;
46210;SDS011;52144;48.040;-1.594;2023-01-24T00:03:43;26.50;;;12.45;;
46210;SDS011;52144;48.040;-1.594;2023-01-24T00:06:12;21.30;;;9.45;;
46210;SDS011;52144;48.040;-1.594;2023-01-24T00:08:40;23.67;;;11.43;;
46210;SDS011;52144;48.040;-1.594;2023-01-24T00:11:08;22.10;;;10.43;;
46210;SDS011;52144;48.040;-1.594;2023-01-24T00:13:37;26.40;;;12.63;;
46210;SDS011;52144;48.040;-1.594;2023-01-24T00:16:06;24.17;;;10.60;;
46210;SDS011;52144;48.040;-1.594;2023-01-24T00:18:36;32.03;;;12.07;;
46210;SDS011;52144;48.040;-1.594;2023-01-24T00:21:06;29.88;;;13.13;;
46210;SDS011;52144;48.040;-1.594;2023-01-24T00:26:07;26.20;;;10.18;;
46210;SDS011;52144;48.040;-1.594;2023-01-24T00:28:35;19.67;;;10.20;;
46210;SDS011;52144;48.040;-1.594;2023-01-24T00:31:03;25.60;;;10.50;;
46210;SDS011;52144;48.040;-1.594;2023-01-24T00:33:31;26.80;;;12.70;;
46210;SDS011;52144;48.040;-1.594;2023-01-24T00:36:00;24.67;;;11.13;;
46210;SDS011;52144;48.040;-1.594;2023-01-24T00:38:30;24.33;;;11.27;;
46210;SDS011;52144;48.040;-1.594;2023-01-24T00:40:58;27.15;;;11.70;;
46210;SDS011;52144;48.040;-1.594;2023-01-24T00:43:26;26.02;;;12.57;;
46210;SDS011;52144;48.040;-1.594;2023-01-24T00:45:54;20.25;;;10.52;;
46210;SDS011;52144;48.040;-1.594;2023-01-24T00:48:23;20.17;;;10.30;;
46210;SDS011;52144;48.040;-1.594;2023-01-24T00:50:51;29.50;;;11.77;;
46210;SDS011;52144;48.040;-1.594;2023-01-24T00:53:19;21.92;;;10.07;;
46210;SDS011;52144;48.040;-1.594;2023-01-24T00:55:48;22.38;;;12.20;;
46210;SDS011;52144;48.040;-1.594;2023-01-24T00:58:16;18.40;;;9.40;;
46210;SDS011;52144;48.040;-1.594;2023-01-24T01:00:44;26.35;;;11.13;;
46210;SDS011;52144;48.040;-1.594;2023-01-24T01:03:12;28.27;;;10.48;;
46210;SDS011;52144;48.040;-1.594;2023-01-24T01:05:41;20.52;;;10.07;;
46210;SDS011;52144;48.040;-1.594;2023-01-24T01:08:10;20.55;;;10.43;;
46210;SDS011;52144;48.040;-1.594;2023-01-24T01:10:38;14.57;;;8.77;;
46210;SDS011;52144;48.040;-1.594;2023-01-24T01:13:08;29.45;;;11.38;;
46210;SDS011;52144;48.040;-1.594;2023-01-24T01:15:38;19.77;;;10.52;;
46210;SDS011;52144;48.040;-1.594;2023-01-24T01:18:06;19.73;;;10.07;;
46210;SDS011;52144;48.040;-1.594;2023-01-24T01:20:34;17.45;;;10.23;;
46210;SDS011;52144;48.040;-1.594;2023-01-24T01:23:02;26.58;;;8.93;;
46210;SDS011;52144;48.040;-1.594;2023-01-24T01:25:30;24.65;;;10.02;;
46210;SDS011;52144;48.040;-1.594;2023-01-24T01:27:58;17.83;;;10.07;;
46210;SDS011;52144;48.040;-1.594;2023-01-24T01:30:27;25.13;;;11.07;;
46210;SDS011;52144;48.040;-1.594;2023-01-24T01:32:55;14.20;;;9.02;;
46210;SDS011;52144;48.040;-1.594;2023-01-24T01:35:23;21.13;;;9.50;;
46210;SDS011;52144;48.040;-1.594;2023-01-24T01:37:50;14.70;;;10.48;;
46210;SDS011;52144;48.040;-1.594;2023-01-24T01:40:18;21.30;;;9.55;;
46210;SDS011;52144;48.040;-1.594;2023-01-24T01:42:50;17.45;;;9.40;;
46210;SDS011;52144;48.040;-1.594;2023-01-24T01:45:31;16.40;;;8.65;;
46210;SDS011;52144;48.040;-1.594;2023-01-24T01:48:02;19.45;;;10.05;;
46210;SDS011;52144;48.040;-1.594;2023-01-24T01:50:39;18.15;;;8.25;;
46210;SDS011;52144;48.040;-1.594;2023-01-24T01:53:11;20.50;;;9.33;;
46210;SDS011;52144;48.040;-1.594;2023-01-24T01:55:42;14.68;;;8.63;;
46210;SDS011;52144;48.040;-1.594;2023-01-24T01:58:15;22.80;;;10.05;;
46210;SDS011;52144;48.040;-1.594;2023-01-24T02:00:45;16.00;;;8.55;;
46210;SDS011;52144;48.040;-1.594;2023-01-24T02:03:18;22.05;;;10.02;;
46210;SDS011;52144;48.040;-1.594;2023-01-24T02:06:10;17.55;;;9.60;;
46210;SDS011;52144;48.040;-1.594;2023-01-24T02:08:45;21.02;;;9.35;;
46210;SDS011;52144;48.040;-1.594;2023-01-24T02:11:15;17.80;;;8.15;;
46210;SDS011;52144;48.040;-1.594;2023-01-24T02:14:01;15.80;;;8.82;;
46210;SDS011;52144;48.040;-1.594;2023-01-24T02:16:47;21.92;;;9.30;;
46210;SDS011;52144;48.040;-1.594;2023-01-24T02:19:17;22.63;;;10.52;;
46210;SDS011;52144;48.040;-1.594;2023-01-24T02:21:55;16.40;;;8.32;;
46210;SDS011;52144;48.040;-1.594;2023-01-24T02:24:30;16.27;;;8.57;;
46210;SDS011;52144;48.040;-1.594;2023-01-24T02:27:04;19.27;;;9.25;;
46210;SDS011;52144;48.040;-1.594;2023-01-24T02:29:32;16.58;;;7.65;;
46210;SDS011;52144;48.040;-1.594;2023-01-24T02:32:01;17.65;;;10.38;;
46210;SDS011;52144;48.040;-1.594;2023-01-24T02:34:29;18.98;;;8.57;;
46210;SDS011;52144;48.040;-1.594;2023-01-24T02:36:58;15.98;;;8.48;;
46210;SDS011;52144;48.040;-1.594;2023-01-24T02:39:29;20.75;;;9.82;;
46210;SDS011;52144;48.040;-1.594;2023-01-24T02:42:00;20.58;;;8.60;;
46210;SDS011;52144;48.040;-1.594;2023-01-24T02:44:34;23.35;;;10.50;;
46210;SDS011;52144;48.040;-1.594;2023-01-24T02:49:43;13.68;;;7.30;;
46210;SDS011;52144;48.040;-1.594;2023-01-24T02:52:10;20.10;;;8.48;;
46210;SDS011;52144;48.040;-1.594;2023-01-24T02:54:56;17.40;;;10.40;;
46210;SDS011;52144;48.040;-1.594;2023-01-24T02:57:24;19.20;;;9.35;;
46210;SDS011;52144;48.040;-1.594;2023-01-24T03:00:11;19.42;;;9.27;;
46210;SDS011;52144;48.040;-1.594;2023-01-24T03:02:39;20.98;;;9.60;;
46210;SDS011;52144;48.040;-1.594;2023-01-24T03:05:07;17.85;;;8.65;;
46210;SDS011;52144;48.040;-1.594;2023-01-24T03:07:35;22.20;;;10.38;;
46210;SDS011;52144;48.040;-1.594;2023-01-24T03:10:11;18.40;;;9.35;;
46210;SDS011;52144;48.040;-1.594;2023-01-24T03:12:40;20.52;;;9.75;;
46210;SDS011;52144;48.040;-1.594;2023-01-24T03:15:27;25.20;;;8.95;;
46210;SDS011;52144;48.040;-1.594;2023-01-24T03:18:13;14.85;;;8.30;;
46210;SDS011;52144;48.040;-1.594;2023-01-24T03:20:58;23.45;;;11.18;;
46210;SDS011;52144;48.040;-1.594;2023-01-24T03:23:43;14.77;;;9.63;;
46210;SDS011;52144;48.040;-1.594;2023-01-24T03:26:29;22.08;;;10.35;;
46210;SDS011;52144;48.040;-1.594;2023-01-24T03:29:14;21.65;;;9.75;;
46210;SDS011;52144;48.040;-1.594;2023-01-24T03:32:01;25.95;;;10.40;;
46210;SDS011;52144;48.040;-1.594;2023-01-24T03:34:46;24.48;;;10.00;;
46210;SDS011;52144;48.040;-1.594;2023-01-24T03:37:16;21.23;;;11.23;;
46210;SDS011;52144;48.040;-1.594;2023-01-24T03:40:06;19.50;;;10.85;;
46210;SDS011;52144;48.040;-1.594;2023-01-24T03:42:35;19.38;;;9.85;;
46210;SDS011;52144;48.040;-1.594;2023-01-24T03:45:13;23.02;;;10.75;;
46210;SDS011;52144;48.040;-1.594;2023-01-24T03:47:49;20.80;;;9.70;;
46210;SDS011;52144;48.040;-1.594;2023-01-24T03:50:31;20.88;;;11.27;;
46210;SDS011;52144;48.040;-1.594;2023-01-24T03:53:19;18.58;;;10.00;;
46210;SDS011;52144;48.040;-1.594;2023-01-24T03:55:50;25.52;;;12.45;;
46210;SDS011;52144;48.040;-1.594;2023-01-24T03:58:19;19.17;;;10.27;;
46210;SDS011;52144;48.040;-1.594;2023-01-24T04:00:46;19.98;;;10.55;;
46210;SDS011;52144;48.040;-1.594;2023-01-24T04:03:16;21.45;;;10.25;;
46210;SDS011;52144;48.040;-1.594;2023-01-24T04:05:45;18.92;;;9.80;;
46210;SDS011;52144;48.040;-1.594;2023-01-24T04:08:13;26.95;;;10.30;;
46210;SDS011;52144;48.040;-1.594;2023-01-24T04:10:41;15.68;;;8.18;;
46210;SDS011;52144;48.040;-1.594;2023-01-24T04:13:09;18.67;;;8.80;;
46210;SDS011;52144;48.040;-1.594;2023-01-24T04:15:37;20.58;;;11.02;;
46210;SDS011;52144;48.040;-1.594;2023-01-24T04:18:05;22.38;;;11.65;;
46210;SDS011;52144;48.040;-1.594;2023-01-24T04:20:35;25.25;;;10.38;;
46210;SDS011;52144;48.040;-1.594;2023-01-24T04:23:04;20.02;;;10.00;;
46210;SDS011;52144;48.040;-1.594;2023-01-24T04:25:33;20.63;;;9.50;;
46210;SDS011;52144;48.040;-1.594;2023-01-24T04:28:01;18.55;;;10.27;;
46210;SDS011;52144;48.040;-1.594;2023-01-24T04:30:30;18.60;;;9.52;;
46210;SDS011;52144;48.040;-1.594;2023-01-24T04:32:57;21.55;;;11.80;;
46210;SDS011;52144;48.040;-1.594;2023-01-24T04:35:26;21.75;;;10.38;;
46210;SDS011;52144;48.040;-1.594;2023-01-24T04:38:00;19.25;;;12.02;;
46210;SDS011;52144;48.040;-1.594;2023-01-24T04:40:29;28.33;;;11.70;;
46210;SDS011;52144;48.040;-1.594;2023-01-24T04:42:57;23.83;;;12.55;;
46210;SDS011;52144;48.040;-1.594;2023-01-24T04:45:25;23.60;;;10.40;;
46210;SDS011;52144;48.040;-1.594;2023-01-24T04:47:53;24.70;;;10.95;;
46210;SDS011;52144;48.040;-1.594;2023-01-24T04:50:21;24.73;;;13.00;;
46210;SDS011;52144;48.040;-1.594;2023-01-24T04:52:48;21.75;;;10.73;;
46210;SDS011;52144;48.040;-1.594;2023-01-24T04:55:18;21.27;;;12.40;;
46210;SDS011;52144;48.040;-1.594;2023-01-24T04:57:46;20.35;;;10.02;;
46210;SDS011;52144;48.040;-1.594;2023-01-24T05:00:14;18.85;;;10.15;;
46210;SDS011;52144;48.040;-1.594;2023-01-24T05:02:43;22.58;;;11.70;;
46210;SDS011;52144;48.040;-1.594;2023-01-24T05:05:11;19.95;;;11.18;;
46210;SDS011;52144;48.040;-1.594;2023-01-24T05:07:38;27.15;;;11.65;;
46210;SDS011;52144;48.040;-1.594;2023-01-24T05:10:07;25.88;;;10.80;;
46210;SDS011;52144;48.040;-1.594;2023-01-24T05:12:37;26.65;;;11.15;;
46210;SDS011;52144;48.040;-1.594;2023-01-24T05:15:05;33.30;;;13.75;;
46210;SDS011;52144;48.040;-1.594;2023-01-24T05:17:34;22.77;;;11.23;;
46210;SDS011;52144;48.040;-1.594;2023-01-24T05:20:01;21.95;;;10.25;;
46210;SDS011;52144;48.040;-1.594;2023-01-24T05:22:29;22.23;;;12.18;;
46210;SDS011;52144;48.040;-1.594;2023-01-24T05:24:57;25.10;;;10.93;;
46210;SDS011;52144;48.040;-1.594;2023-01-24T05:27:25;25.90;;;10.10;;
46210;SDS011;52144;48.040;-1.594;2023-01-24T05:29:54;24.30;;;10.98;;
46210;SDS011;52144;48.040;-1.594;2023-01-24T05:32:22;25.70;;;12.48;;
46210;SDS011;52144;48.040;-1.594;2023-01-24T05:34:50;26.50;;;10.88;;
46210;SDS011;52144;48.040;-1.594;2023-01-24T05:37:18;26.40;;;11.20;;
46210;SDS011;52144;48.040;-1.594;2023-01-24T05:39:45;22.25;;;11.18;;
46210;SDS011;52144;48.040;-1.594;2023-01-24T05:42:13;23.30;;;12.07;;
46210;SDS011;52144;48.040;-1.594;2023-01-24T05:44:41;23.08;;;11.30;;
46210;SDS011;52144;48.040;-1.594;2023-01-24T05:47:10;24.10;;;12.25;;
46210;SDS011;52144;48.040;-1.594;2023-01-24T05:49:38;32.45;;;14.35;;
46210;SDS011;52144;48.040;-1.594;2023-01-24T05:52:05;24.70;;;11.57;;
46210;SDS011;52144;48.040;-1.594;2023-01-24T05:54:33;27.60;;;13.43;;
46210;SDS011;52144;48.040;-1.594;2023-01-24T05:57:01;26.80;;;12.00;;
46210;SDS011;52144;48.040;-1.594;2023-01-24T05:59:29;25.83;;;12.27;;
46210;SDS011;52144;48.040;-1.594;2023-01-24T06:01:57;23.00;;;12.13;;
46210;SDS011;52144;48.040;-1.594;2023-01-24T06:04:26;19.88;;;11.93;;
46210;SDS011;52144;48.040;-1.594;2023-01-24T06:06:54;23.40;;;13.57;;
46210;SDS011;52144;48.040;-1.594;2023-01-24T06:09:21;26.08;;;13.32;;
46210;SDS011;52144;48.040;-1.594;2023-01-24T06:11:49;32.33;;;13.50;;
46210;SDS011;52144;48.040;-1.594;2023-01-24T06:14:17;26.27;;;12.75;;
46210;SDS011;52144;48.040;-1.594;2023-01-24T06:16:46;23.73;;;11.90;;
46210;SDS011;52144;48.040;-1.594;2023-01-24T06:19:14;25.65;;;12.23;;
46210;SDS011;52144;48.040;-1.594;2023-01-24T06:21:44;22.45;;;12.63;;
46210;SDS011;52144;48.040;-1.594;2023-01-24T06:24:15;32.00;;;13.52;;
46210;SDS011;52144;48.040;-1.594;2023-01-24T06:26:46;23.98;;;12.90;;
46210;SDS011;52144;48.040;-1.594;2023-01-24T06:29:16;23.63;;;12.57;;
46210;SDS011;52144;48.040;-1.594;2023-01-24T06:31:47;20.52;;;12.20;;
46210;SDS011;52144;48.040;-1.594;2023-01-24T06:34:36;24.90;;;12.45;;
46210;SDS011;52144;48.040;-1.594;2023-01-24T06:37:19;28.35;;;13.90;;
46210;SDS011;52144;48.040;-1.594;2023-01-24T06:39:55;28.13;;;13.70;;
46210;SDS011;52144;48.040;-1.594;2023-01-24T06:42:24;23.52;;;12.27;;
46210;SDS011;52144;48.040;-1.594;2023-01-24T06:44:52;30.63;;;13.18;;
46210;SDS011;52144;48.040;-1.594;2023-01-24T06:47:20;32.72;;;12.30;;
46210;SDS011;52144;48.040;-1.594;2023-01-24T06:49:50;32.42;;;13.05;;
46210;SDS011;52144;48.040;-1.594;2023-01-24T06:52:19;25.67;;;12.05;;
46210;SDS011;52144;48.040;-1.594;2023-01-24T06:54:46;28.65;;;14.40;;
46210;SDS011;52144;48.040;-1.594;2023-01-24T06:57:14;24.38;;;11.57;;
46210;SDS011;52144;48.040;-1.594;2023-01-24T06:59:43;32.63;;;14.50;;
46210;SDS011;52144;48.040;-1.594;2023-01-24T07:02:11;29.83;;;14.02;;
46210;SDS011;52144;48.040;-1.594;2023-01-24T07:04:38;26.70;;;12.35;;
46210;SDS011;52144;48.040;-1.594;2023-01-24T07:07:06;28.27;;;13.68;;
46210;SDS011;52144;48.040;-1.594;2023-01-24T07:09:36;29.20;;;14.43;;
46210;SDS011;52144;48.040;-1.594;2023-01-24T07:12:03;21.52;;;11.18;;
46210;SDS011;52144;48.040;-1.594;2023-01-24T07:14:31;26.27;;;13.82;;
46210;SDS011;52144;48.040;-1.594;2023-01-24T07:16:59;26.83;;;14.27;;
46210;SDS011;52144;48.040;-1.594;2023-01-24T07:19:28;26.45;;;13.63;;
46210;SDS011;52144;48.040;-1.594;2023-01-24T07:21:56;32.88;;;14.73;;
46210;SDS011;52144;48.040;-1.594;2023-01-24T07:24:25;24.50;;;11.57;;
46210;SDS011;52144;48.040;-1.594;2023-01-24T07:26:57;29.05;;;13.45;;
46210;SDS011;52144;48.040;-1.594;2023-01-24T07:29:25;25.77;;;12.48;;
46210;SDS011;52144;48.040;-1.594;2023-01-24T07:31:53;28.73;;;11.73;;
46210;SDS011;52144;48.040;-1.594;2023-01-24T07:34:21;35.47;;;14.75;;
46210;SDS011;52144;48.040;-1.594;2023-01-24T07:36:49;25.88;;;12.90;;
46210;SDS011;52144;48.040;-1.594;2023-01-24T07:39:16;28.10;;;14.15;;
46210;SDS011;52144;48.040;-1.594;2023-01-24T07:41:44;27.60;;;13.88;;
46210;SDS011;52144;48.040;-1.594;2023-01-24T07:44:13;33.50;;;15.50;;
46210;SDS011;52144;48.040;-1.594;2023-01-24T07:46:41;28.42;;;13.25;;
46210;SDS011;52144;48.040;-1.594;2023-01-24T07:49:09;26.45;;;12.65;;
46210;SDS011;52144;48.040;-1.594;2023-01-24T07:51:37;29.90;;;13.50;;
46210;SDS011;52144;48.040;-1.594;2023-01-24T07:54:06;35.03;;;13.15;;
46210;SDS011;52144;48.040;-1.594;2023-01-24T07:56:35;39.08;;;14.48;;
46210;SDS011;52144;48.040;-1.594;2023-01-24T07:59:03;29.13;;;13.57;;
46210;SDS011;52144;48.040;-1.594;2023-01-24T08:01:33;24.02;;;14.25;;
46210;SDS011;52144;48.040;-1.594;2023-01-24T08:04:00;27.42;;;12.90;;
46210;SDS011;52144;48.040;-1.594;2023-01-24T08:06:28;26.73;;;12.70;;
46210;SDS011;52144;48.040;-1.594;2023-01-24T08:08:56;36.08;;;13.70;;
46210;SDS011;52144;48.040;-1.594;2023-01-24T08:11:24;32.95;;;15.13;;
46210;SDS011;52144;48.040;-1.594;2023-01-24T08:13:52;28.00;;;14.23;;
46210;SDS011;52144;48.040;-1.594;2023-01-24T08:16:21;34.47;;;14.90;;
46210;SDS011;52144;48.040;-1.594;2023-01-24T08:18:53;27.00;;;14.00;;
46210;SDS011;52144;48.040;-1.594;2023-01-24T08:21:21;29.77;;;13.80;;
46210;SDS011;52144;48.040;-1.594;2023-01-24T08:23:49;32.22;;;14.20;;
46210;SDS011;52144;48.040;-1.594;2023-01-24T08:26:16;28.95;;;13.60;;
46210;SDS011;52144;48.040;-1.594;2023-01-24T08:28:46;30.60;;;12.80;;
46210;SDS011;52144;48.040;-1.594;2023-01-24T08:31:14;22.23;;;14.13;;
46210;SDS011;52144;48.040;-1.594;2023-01-24T08:33:42;27.92;;;14.65;;
46210;SDS011;52144;48.040;-1.594;2023-01-24T08:36:11;27.17;;;14.45;;
46210;SDS011;52144;48.040;-1.594;2023-01-24T08:38:39;35.50;;;14.52;;
46210;SDS011;52144;48.040;-1.594;2023-01-24T08:41:06;31.80;;;14.70;;
46210;SDS011;52144;48.040;-1.594;2023-01-24T08:43:34;27.13;;;13.38;;
46210;SDS011;52144;48.040;-1.594;2023-01-24T08:46:02;32.65;;;14.70;;
46210;SDS011;52144;48.040;-1.594;2023-01-24T08:48:31;32.53;;;15.85;;
46210;SDS011;52144;48.040;-1.594;2023-01-24T08:51:01;27.20;;;13.32;;
46210;SDS011;52144;48.040;-1.594;2023-01-24T08:53:31;28.38;;;14.43;;
46210;SDS011;52144;48.040;-1.594;2023-01-24T08:56:00;26.95;;;13.10;;
46210;SDS011;52144;48.040;-1.594;2023-01-24T08:58:28;29.95;;;13.38;;
46210;SDS011;52144;48.040;-1.594;2023-01-24T09:00:58;26.50;;;13.18;;
46210;SDS011;52144;48.040;-1.594;2023-01-24T09:03:26;30.05;;;14.80;;
46210;SDS011;52144;48.040;-1.594;2023-01-24T09:05:55;32.47;;;15.30;;
46210;SDS011;52144;48.040;-1.594;2023-01-24T09:08:23;38.75;;;16.35;;
46210;SDS011;52144;48.040;-1.594;2023-01-24T09:10:52;32.38;;;15.55;;
46210;SDS011;52144;48.040;-1.594;2023-01-24T09:13:20;34.03;;;16.10;;
46210;SDS011;52144;48.040;-1.594;2023-01-24T09:15:48;32.78;;;14.25;;
46210;SDS011;52144;48.040;-1.594;2023-01-24T09:18:18;42.72;;;15.93;;
46210;SDS011;52144;48.040;-1.594;2023-01-24T09:20:46;46.30;;;14.77;;
46210;SDS011;52144;48.040;-1.594;2023-01-24T09:23:14;28.30;;;14.40;;
46210;SDS011;52144;48.040;-1.594;2023-01-24T09:25:48;28.73;;;15.25;;
46210;SDS011;52144;48.040;-1.594;2023-01-24T09:28:19;37.15;;;17.30;;
46210;SDS011;52144;48.040;-1.594;2023-01-24T09:30:47;32.45;;;14.68;;
46210;SDS011;52144;48.040;-1.594;2023-01-24T09:33:15;38.92;;;15.80;;
46210;SDS011;52144;48.040;-1.594;2023-01-24T09:35:52;25.52;;;14.27;;
46210;SDS011;52144;48.040;-1.594;2023-01-24T09:38:23;30.65;;;14.50;;
46210;SDS011;52144;48.040;-1.594;2023-01-24T09:40:54;37.50;;;16.88;;
46210;SDS011;52144;48.040;-1.594;2023-01-24T09:43:35;28.58;;;12.50;;
46210;SDS011;52144;48.040;-1.594;2023-01-24T09:46:13;33.72;;;14.52;;
46210;SDS011;52144;48.040;-1.594;2023-01-24T09:49:00;48.95;;;15.75;;
46210;SDS011;52144;48.040;-1.594;2023-01-24T09:51:32;28.85;;;13.55;;
46210;SDS011;52144;48.040;-1.594;2023-01-24T09:54:04;36.20;;;17.05;;
46210;SDS011;52144;48.040;-1.594;2023-01-24T09:56:34;29.48;;;13.75;;
46210;SDS011;52144;48.040;-1.594;2023-01-24T09:59:12;30.85;;;15.45;;
46210;SDS011;52144;48.040;-1.594;2023-01-24T10:01:44;33.67;;;14.52;;
46210;SDS011;52144;48.040;-1.594;2023-01-24T10:04:15;37.13;;;15.00;;
46210;SDS011;52144;48.040;-1.594;2023-01-24T10:09:56;27.65;;;14.07;;
46210;SDS011;52144;48.040;-1.594;2023-01-24T10:12:37;30.15;;;14.95;;
46210;SDS011;52144;48.040;-1.594;2023-01-24T10:15:24;32.63;;;13.98;;
46210;SDS011;52144;48.040;-1.594;2023-01-24T10:18:10;27.23;;;13.23;;
46210;SDS011;52144;48.040;-1.594;2023-01-24T10:20:51;38.28;;;16.95;;
46210;SDS011;52144;48.040;-1.594;2023-01-24T10:23:29;38.30;;;15.10;;
46210;SDS011;52144;48.040;-1.594;2023-01-24T10:26:01;30.13;;;15.27;;
46210;SDS011;52144;48.040;-1.594;2023-01-24T10:28:33;34.63;;;16.08;;
46210;SDS011;52144;48.040;-1.594;2023-01-24T10:31:07;30.67;;;13.43;;
46210;SDS011;52144;48.040;-1.594;2023-01-24T10:33:41;33.10;;;16.08;;
46210;SDS011;52144;48.040;-1.594;2023-01-24T10:36:15;34.20;;;17.13;;
46210;SDS011;52144;48.040;-1.594;2023-01-24T10:38:49;31.63;;;15.15;;
46210;SDS011;52144;48.040;-1.594;2023-01-24T10:41:18;29.52;;;15.23;;
46210;SDS011;52144;48.040;-1.594;2023-01-24T10:43:53;35.45;;;16.95;;
46210;SDS011;52144;48.040;-1.594;2023-01-24T10:46:43;37.15;;;17.30;;
46210;SDS011;52144;48.040;-1.594;2023-01-24T10:49:25;36.30;;;18.15;;
46210;SDS011;52144;48.040;-1.594;2023-01-24T10:52:11;32.88;;;16.33;;
46210;SDS011;52144;48.040;-1.594;2023-01-24T10:54:42;41.92;;;17.10;;
46210;SDS011;52144;48.040;-1.594;2023-01-24T10:57:33;38.35;;;16.27;;
46210;SDS011;52144;48.040;-1.594;2023-01-24T11:00:09;39.38;;;14.70;;
46210;SDS011;52144;48.040;-1.594;2023-01-24T11:02:48;36.92;;;15.85;;
46210;SDS011;52144;48.040;-1.594;2023-01-24T11:05:17;35.97;;;16.20;;
46210;SDS011;52144;48.040;-1.594;2023-01-24T11:07:47;35.85;;;17.08;;
46210;SDS011;52144;48.040;-1.594;2023-01-24T11:10:18;43.33;;;18.98;;
46210;SDS011;52144;48.040;-1.594;2023-01-24T11:12:49;33.03;;;15.77;;
46210;SDS011;52144;48.040;-1.594;2023-01-24T11:15:22;42.10;;;17.35;;
46210;SDS011;52144;48.040;-1.594;2023-01-24T11:17:55;30.65;;;14.82;;
46210;SDS011;52144;48.040;-1.594;2023-01-24T11:20:31;31.08;;;14.00;;
46210;SDS011;52144;48.040;-1.594;2023-01-24T11:23:01;32.08;;;15.75;;
46210;SDS011;52144;48.040;-1.594;2023-01-24T11:25:31;33.38;;;15.75;;
46210;SDS011;52144;48.040;-1.594;2023-01-24T11:27:59;30.95;;;15.48;;
46210;SDS011;52144;48.040;-1.594;2023-01-24T11:30:27;37.13;;;14.68;;
46210;SDS011;52144;48.040;-1.594;2023-01-24T11:33:09;37.70;;;14.55;;
46210;SDS011;52144;48.040;-1.594;2023-01-24T11:35:51;40.53;;;16.67;;
46210;SDS011;52144;48.040;-1.594;2023-01-24T11:38:23;43.15;;;16.10;;
46210;SDS011;52144;48.040;-1.594;2023-01-24T11:41:02;39.38;;;17.90;;
46210;SDS011;52144;48.040;-1.594;2023-01-24T11:43:54;37.95;;;15.38;;
46210;SDS011;52144;48.040;-1.594;2023-01-24T11:46:51;37.45;;;17.13;;
46210;SDS011;52144;48.040;-1.594;2023-01-24T11:49:41;38.97;;;16.48;;
46210;SDS011;52144;48.040;-1.594;2023-01-24T11:54:57;27.70;;;12.18;;
46210;SDS011;52144;48.040;-1.594;2023-01-24T11:57:33;30.80;;;14.93;;
46210;SDS011;52144;48.040;-1.594;2023-01-24T12:00:18;33.92;;;16.00;;
46210;SDS011;52144;48.040;-1.594;2023-01-24T12:02:59;33.67;;;14.02;;
46210;SDS011;52144;48.040;-1.594;2023-01-24T12:05:48;30.88;;;15.48;;
46210;SDS011;52144;48.040;-1.594;2023-01-24T12:08:29;40.80;;;16.10;;
46210;SDS011;52144;48.040;-1.594;2023-01-24T12:14:09;30.80;;;15.07;;
46210;SDS011;52144;48.040;-1.594;2023-01-24T12:16:55;28.38;;;14.48;;
46210;SDS011;52144;48.040;-1.594;2023-01-24T12:19:39;39.67;;;16.38;;
46210;SDS011;52144;48.040;-1.594;2023-01-24T12:22:23;35.63;;;15.70;;
46210;SDS011;52144;48.040;-1.594;2023-01-24T12:24:53;31.35;;;15.18;;
46210;SDS011;52144;48.040;-1.594;2023-01-24T12:27:26;37.47;;;15.77;;
46210;SDS011;52144;48.040;-1.594;2023-01-24T12:29:59;42.53;;;16.87;;
46210;SDS011;52144;48.040;-1.594;2023-01-24T12:32:34;30.80;;;14.80;;
46210;SDS011;52144;48.040;-1.594;2023-01-24T12:35:10;39.95;;;17.08;;
46210;SDS011;52144;48.040;-1.594;2023-01-24T12:37:48;31.65;;;14.75;;
46210;SDS011;52144;48.040;-1.594;2023-01-24T12:40:38;38.47;;;14.95;;
46210;SDS011;52144;48.040;-1.594;2023-01-24T12:43:19;32.50;;;11.82;;
46210;SDS011;52144;48.040;-1.594;2023-01-24T12:45:56;41.40;;;17.65;;
46210;SDS011;52144;48.040;-1.594;2023-01-24T12:48:33;42.88;;;16.92;;
46210;SDS011;52144;48.040;-1.594;2023-01-24T12:51:13;31.65;;;15.38;;
46210;SDS011;52144;48.040;-1.594;2023-01-24T12:53:54;38.40;;;16.40;;
46210;SDS011;52144;48.040;-1.594;2023-01-24T12:56:27;38.60;;;15.10;;
46210;SDS011;52144;48.040;-1.594;2023-01-24T12:59:03;34.13;;;13.43;;
46210;SDS011;52144;48.040;-1.594;2023-01-24T13:01:39;38.05;;;14.18;;
46210;SDS011;52144;48.040;-1.594;2023-01-24T13:04:20;34.55;;;16.33;;
46210;SDS011;52144;48.040;-1.594;2023-01-24T13:07:02;32.97;;;15.23;;
46210;SDS011;52144;48.040;-1.594;2023-01-24T13:09:42;33.22;;;16.17;;
46210;SDS011;52144;48.040;-1.594;2023-01-24T13:12:16;28.45;;;13.38;;
46210;SDS011;52144;48.040;-1.594;2023-01-24T13:14:49;29.95;;;12.45;;
46210;SDS011;52144;48.040;-1.594;2023-01-24T13:20:27;30.00;;;14.52;;
46210;SDS011;52144;48.040;-1.594;2023-01-24T13:26:26;34.08;;;15.75;;
46210;SDS011;52144;48.040;-1.594;2023-01-24T13:32:21;34.88;;;14.23;;
46210;SDS011;52144;48.040;-1.594;2023-01-24T13:34:52;27.80;;;12.95;;
46210;SDS011;52144;48.040;-1.594;2023-01-24T13:37:24;33.08;;;14.13;;
46210;SDS011;52144;48.040;-1.594;2023-01-24T13:40:04;32.28;;;16.00;;
46210;SDS011;52144;48.040;-1.594;2023-01-24T13:42:36;30.95;;;14.90;;
46210;SDS011;52144;48.040;-1.594;2023-01-24T13:54:33;27.50;;;13.07;;
46210;SDS011;52144;48.040;-1.594;2023-01-24T13:57:17;38.72;;;16.13;;
46210;SDS011;52144;48.040;-1.594;2023-01-24T14:00:00;34.10;;;15.38;;
46210;SDS011;52144;48.040;-1.594;2023-01-24T14:02:41;33.03;;;13.27;;
46210;SDS011;52144;48.040;-1.594;2023-01-24T14:05:34;25.75;;;13.00;;
46210;SDS011;52144;48.040;-1.594;2023-01-24T14:08:16;26.90;;;12.60;;
46210;SDS011;52144;48.040;-1.594;2023-01-24T14:11:13;29.35;;;13.98;;
46210;SDS011;52144;48.040;-1.594;2023-01-24T14:13:53;40.42;;;15.68;;
46210;SDS011;52144;48.040;-1.594;2023-01-24T14:19:28;36.88;;;14.75;;
46210;SDS011;52144;48.040;-1.594;2023-01-24T14:22:01;34.00;;;14.82;;
46210;SDS011;52144;48.040;-1.594;2023-01-24T14:24:33;29.20;;;13.70;;
46210;SDS011;52144;48.040;-1.594;2023-01-24T14:27:13;27.55;;;12.93;;
46210;SDS011;52144;48.040;-1.594;2023-01-24T14:29:45;34.90;;;10.57;;
46210;SDS011;52144;48.040;-1.594;2023-01-24T14:32:20;32.92;;;13.75;;
46210;SDS011;52144;48.040;-1.594;2023-01-24T14:34:53;25.88;;;12.05;;
46210;SDS011;52144;48.040;-1.594;2023-01-24T14:37:27;30.17;;;12.95;;
46210;SDS011;52144;48.040;-1.594;2023-01-24T14:40:10;28.10;;;12.95;;
46210;SDS011;52144;48.040;-1.594;2023-01-24T14:42:45;28.63;;;13.23;;
46210;SDS011;52144;48.040;-1.594;2023-01-24T14:45:14;37.88;;;15.27;;
46210;SDS011;52144;48.040;-1.594;2023-01-24T14:47:46;72.75;;;20.35;;
46210;SDS011;52144;48.040;-1.594;2023-01-24T14:50:20;26.95;;;13.50;;
46210;SDS011;52144;48.040;-1.594;2023-01-24T14:52:50;36.28;;;14.82;;
46210;SDS011;52144;48.040;-1.594;2023-01-24T14:55:26;33.13;;;15.43;;
46210;SDS011;52144;48.040;-1.594;2023-01-24T14:58:12;28.30;;;13.70;;
46210;SDS011;52144;48.040;-1.594;2023-01-24T15:00:46;26.50;;;13.30;;
46210;SDS011;52144;48.040;-1.594;2023-01-24T15:03:17;38.40;;;14.73;;
46210;SDS011;52144;48.040;-1.594;2023-01-24T15:05:49;32.28;;;12.10;;
46210;SDS011;52144;48.040;-1.594;2023-01-24T15:08:27;28.25;;;13.25;;
46210;SDS011;52144;48.040;-1.594;2023-01-24T15:10:57;35.28;;;12.82;;
46210;SDS011;52144;48.040;-1.594;2023-01-24T15:13:31;22.38;;;11.40;;
46210;SDS011;52144;48.040;-1.594;2023-01-24T15:16:01;34.65;;;13.10;;
46210;SDS011;52144;48.040;-1.594;2023-01-24T15:18:42;27.05;;;13.15;;